TRA81U EHRD-LFBE
Flight info
| Callsign | TRA81U |
|---|---|
| Flight time | 1h 22m |
| Altitude | 37000 |
| Route | WOODY N872 CIV DCT KOVIN DCT DUCRA DCT RESMI DCT DEKOD DCT DISAK DCT DIRMO DCT ARTAX DCT BEBIX DCT LMG A34 BUGUS |
| Aircraft | B738/M-SDE2E3FGHIRWXY/LB1 |
Departure
| Time | 2026-04-22 07:25 |
|---|---|
| Airport | Rotterdam The Hague Airport (EHRD) |
Arrival
| Time | 2026-04-22 08:47 |
|---|---|
| Airport | Bergerac Dordogne-Périgord airport (LFBE) |
| Time | Latitude | Longitude | Altitude | Speed | Heading |
|---|---|---|---|---|---|
| 2026-04-22 07:02 | 51.95165 | 4.43350 | -15 ft | 0 kts | 327° |
| 2026-04-22 07:21 | 51.95165 | 4.43349 | 0 ft | 0 kts | 327° |
| 2026-04-22 07:21 | 51.95166 | 4.43349 | 0 ft | 0 kts | 327° |
| 2026-04-22 07:23 | 51.95178 | 4.43335 | 1 ft | 8 kts | 319° |
| 2026-04-22 07:23 | 51.95200 | 4.43254 | 0 ft | 8 kts | 258° |
| 2026-04-22 07:23 | 51.95165 | 4.43189 | 0 ft | 8 kts | 230° |
| 2026-04-22 07:23 | 51.95133 | 4.43102 | 0 ft | 13 kts | 241° |
| 2026-04-22 07:24 | 51.95120 | 4.42957 | 0 ft | 14 kts | 300° |
| 2026-04-22 07:24 | 51.95213 | 4.42880 | 1 ft | 10 kts | 20° |
| 2026-04-22 07:24 | 51.95397 | 4.43295 | -1 ft | 88 kts | 56° |
| 2026-04-22 07:24 | 51.95859 | 4.44443 | 124 ft | 144 kts | 57° |
| 2026-04-22 07:25 | 51.96433 | 4.45882 | 816 ft | 160 kts | 59° |
| 2026-04-22 07:25 | 51.96799 | 4.46856 | 1649 ft | 151 kts | 61° |
| 2026-04-22 07:25 | 51.97259 | 4.48141 | 2440 ft | 154 kts | 63° |
| 2026-04-22 07:25 | 51.97827 | 4.49764 | 2951 ft | 181 kts | 62° |
| 2026-04-22 07:26 | 51.98467 | 4.51642 | 3273 ft | 208 kts | 64° |
| 2026-04-22 07:26 | 51.99149 | 4.53828 | 3713 ft | 222 kts | 65° |
| 2026-04-22 07:26 | 51.99840 | 4.56141 | 4321 ft | 226 kts | 70° |
| 2026-04-22 07:26 | 52.00018 | 4.58619 | 5005 ft | 227 kts | 97° |
| 2026-04-22 07:27 | 51.99538 | 4.61047 | 5681 ft | 230 kts | 116° |
| 2026-04-22 07:27 | 51.98544 | 4.63097 | 6290 ft | 236 kts | 136° |
| 2026-04-22 07:27 | 51.97128 | 4.64504 | 6904 ft | 241 kts | 149° |
| 2026-04-22 07:27 | 51.95599 | 4.65754 | 7489 ft | 244 kts | 149° |
| 2026-04-22 07:28 | 51.92247 | 4.66318 | 8584 ft | 265 kts | 199° |
| 2026-04-22 07:28 | 51.90775 | 4.64473 | 9122 ft | 275 kts | 229° |
| 2026-04-22 07:28 | 51.89672 | 4.61928 | 9694 ft | 278 kts | 233° |
| 2026-04-22 07:29 | 51.88586 | 4.59311 | 10217 ft | 282 kts | 233° |
| 2026-04-22 07:29 | 51.87423 | 4.56740 | 10701 ft | 285 kts | 221° |
| 2026-04-22 07:29 | 51.85715 | 4.55061 | 10863 ft | 296 kts | 194° |
| 2026-04-22 07:29 | 51.83660 | 4.54133 | 11040 ft | 319 kts | 191° |
| 2026-04-22 07:30 | 51.81439 | 4.53242 | 11372 ft | 337 kts | 190° |
| 2026-04-22 07:30 | 51.79139 | 4.52334 | 12027 ft | 343 kts | 190° |
| 2026-04-22 07:30 | 51.76808 | 4.51404 | 12784 ft | 347 kts | 191° |
| 2026-04-22 07:30 | 51.74453 | 4.50453 | 13543 ft | 351 kts | 191° |
| 2026-04-22 07:31 | 51.72074 | 4.49484 | 14280 ft | 355 kts | 191° |
| 2026-04-22 07:31 | 51.69667 | 4.48499 | 14942 ft | 359 kts | 191° |
| 2026-04-22 07:31 | 51.67236 | 4.47501 | 15594 ft | 362 kts | 191° |
| 2026-04-22 07:31 | 51.64749 | 4.46480 | 16255 ft | 366 kts | 191° |
| 2026-04-22 07:32 | 51.62267 | 4.45460 | 16907 ft | 370 kts | 191° |
| 2026-04-22 07:32 | 51.59760 | 4.44431 | 17564 ft | 374 kts | 191° |
| 2026-04-22 07:32 | 51.57259 | 4.43405 | 18205 ft | 378 kts | 191° |
| 2026-04-22 07:32 | 51.54699 | 4.42357 | 18818 ft | 382 kts | 191° |
| 2026-04-22 07:33 | 51.52112 | 4.41298 | 19393 ft | 385 kts | 190° |
| 2026-04-22 07:33 | 51.49508 | 4.40234 | 19960 ft | 388 kts | 190° |
| 2026-04-22 07:33 | 51.46882 | 4.39161 | 20542 ft | 390 kts | 190° |
| 2026-04-22 07:33 | 51.44240 | 4.38084 | 21118 ft | 393 kts | 190° |
| 2026-04-22 07:34 | 51.41577 | 4.37001 | 21646 ft | 397 kts | 190° |
| 2026-04-22 07:34 | 51.39779 | 4.36156 | 22002 ft | 402 kts | 197° |
| 2026-04-22 07:34 | 51.37200 | 4.34333 | 22556 ft | 407 kts | 202° |
| 2026-04-22 07:34 | 51.34659 | 4.32292 | 23085 ft | 410 kts | 203° |
| 2026-04-22 07:35 | 51.32085 | 4.30266 | 23603 ft | 414 kts | 202° |
| 2026-04-22 07:35 | 51.29483 | 4.28266 | 24074 ft | 417 kts | 202° |
| 2026-04-22 07:35 | 51.26890 | 4.26289 | 24488 ft | 419 kts | 202° |
| 2026-04-22 07:35 | 51.24213 | 4.24255 | 24928 ft | 422 kts | 202° |
| 2026-04-22 07:36 | 51.21593 | 4.22265 | 25345 ft | 424 kts | 203° |
| 2026-04-22 07:36 | 51.19319 | 4.20539 | 25693 ft | 426 kts | 203° |
| 2026-04-22 07:36 | 51.16782 | 4.18624 | 26088 ft | 428 kts | 202° |
| 2026-04-22 07:36 | 51.14011 | 4.16856 | 26486 ft | 430 kts | 198° |
| 2026-04-22 07:37 | 51.11178 | 4.15305 | 26877 ft | 432 kts | 197° |
| 2026-04-22 07:37 | 51.08317 | 4.13806 | 27246 ft | 435 kts | 197° |
| 2026-04-22 07:37 | 51.05435 | 4.12294 | 27611 ft | 438 kts | 197° |
| 2026-04-22 07:37 | 51.02536 | 4.10750 | 27981 ft | 440 kts | 198° |
| 2026-04-22 07:38 | 50.99626 | 4.09180 | 28333 ft | 443 kts | 198° |
| 2026-04-22 07:38 | 50.96705 | 4.07591 | 28693 ft | 445 kts | 198° |
| 2026-04-22 07:38 | 50.93769 | 4.05990 | 29037 ft | 448 kts | 199° |
| 2026-04-22 07:38 | 50.90812 | 4.04381 | 29374 ft | 450 kts | 199° |
| 2026-04-22 07:39 | 50.87841 | 4.02763 | 29695 ft | 453 kts | 200° |
| 2026-04-22 07:39 | 50.84889 | 4.01002 | 30015 ft | 455 kts | 202° |
| 2026-04-22 07:39 | 50.81949 | 3.99112 | 30335 ft | 457 kts | 203° |
| 2026-04-22 07:39 | 50.79007 | 3.97177 | 30598 ft | 459 kts | 203° |
| 2026-04-22 07:40 | 50.76055 | 3.95238 | 30861 ft | 461 kts | 203° |
| 2026-04-22 07:40 | 50.73082 | 3.93306 | 31127 ft | 462 kts | 203° |
| 2026-04-22 07:40 | 50.70110 | 3.91394 | 31529 ft | 460 kts | 203° |
| 2026-04-22 07:40 | 50.67152 | 3.89504 | 31925 ft | 458 kts | 203° |
| 2026-04-22 07:41 | 50.64199 | 3.87623 | 32232 ft | 459 kts | 203° |
| 2026-04-22 07:41 | 50.61232 | 3.85737 | 32521 ft | 459 kts | 203° |
| 2026-04-22 07:41 | 50.58270 | 3.83855 | 32841 ft | 459 kts | 203° |
| 2026-04-22 07:41 | 50.55323 | 3.81950 | 33181 ft | 458 kts | 205° |
| 2026-04-22 07:42 | 50.52395 | 3.79975 | 33493 ft | 458 kts | 205° |
| 2026-04-22 07:42 | 50.49478 | 3.77969 | 33764 ft | 458 kts | 206° |
| 2026-04-22 07:42 | 50.46565 | 3.75956 | 34051 ft | 458 kts | 206° |
| 2026-04-22 07:42 | 50.43649 | 3.73947 | 34341 ft | 457 kts | 206° |
| 2026-04-22 07:43 | 50.40735 | 3.71949 | 34582 ft | 457 kts | 206° |
| 2026-04-22 07:43 | 50.37821 | 3.69960 | 34803 ft | 458 kts | 206° |
| 2026-04-22 07:43 | 50.34897 | 3.67972 | 35040 ft | 457 kts | 206° |
| 2026-04-22 07:43 | 50.31982 | 3.65996 | 35272 ft | 457 kts | 206° |
| 2026-04-22 07:44 | 50.29060 | 3.64020 | 35503 ft | 457 kts | 206° |
| 2026-04-22 07:44 | 50.26140 | 3.62049 | 35720 ft | 457 kts | 206° |
| 2026-04-22 07:44 | 50.23227 | 3.60084 | 35935 ft | 457 kts | 206° |
| 2026-04-22 07:44 | 50.20309 | 3.58118 | 36171 ft | 456 kts | 206° |
| 2026-04-22 07:45 | 50.17398 | 3.56160 | 36406 ft | 455 kts | 207° |
| 2026-04-22 07:45 | 50.14491 | 3.54206 | 36613 ft | 455 kts | 207° |
| 2026-04-22 07:45 | 50.11587 | 3.52257 | 36834 ft | 454 kts | 207° |
| 2026-04-22 07:45 | 50.08727 | 3.50340 | 37047 ft | 454 kts | 207° |
| 2026-04-22 07:46 | 50.05825 | 3.48398 | 37239 ft | 454 kts | 207° |
| 2026-04-22 07:46 | 50.02919 | 3.46454 | 37256 ft | 457 kts | 207° |
| 2026-04-22 07:46 | 49.97086 | 3.42562 | 37256 ft | 454 kts | 207° |
| 2026-04-22 07:47 | 49.91305 | 3.38718 | 37262 ft | 450 kts | 207° |
| 2026-04-22 07:47 | 49.85569 | 3.34911 | 37251 ft | 447 kts | 207° |
| 2026-04-22 07:48 | 49.79861 | 3.31132 | 37247 ft | 445 kts | 207° |
| 2026-04-22 07:48 | 49.74177 | 3.27378 | 37257 ft | 444 kts | 208° |
| 2026-04-22 07:49 | 49.68490 | 3.23630 | 37251 ft | 445 kts | 208° |
| 2026-04-22 07:49 | 49.62789 | 3.19884 | 37252 ft | 446 kts | 208° |
| 2026-04-22 07:50 | 49.57064 | 3.16131 | 37248 ft | 448 kts | 208° |
| 2026-04-22 07:50 | 49.51305 | 3.12365 | 37246 ft | 451 kts | 208° |
| 2026-04-22 07:51 | 49.45783 | 3.07949 | 37249 ft | 445 kts | 218° |
| 2026-04-22 07:51 | 49.40640 | 3.02651 | 37230 ft | 445 kts | 219° |
| 2026-04-22 07:52 | 49.35500 | 2.97338 | 37234 ft | 446 kts | 219° |
| 2026-04-22 07:52 | 49.30324 | 2.92072 | 37226 ft | 446 kts | 219° |
| 2026-04-22 07:53 | 49.25144 | 2.86849 | 37218 ft | 445 kts | 219° |
| 2026-04-22 07:53 | 49.20535 | 2.82217 | 37214 ft | 443 kts | 219° |
| 2026-04-22 07:54 | 49.15387 | 2.77052 | 37208 ft | 442 kts | 219° |
| 2026-04-22 07:54 | 49.10259 | 2.71919 | 37205 ft | 440 kts | 219° |
| 2026-04-22 07:55 | 49.05159 | 2.66824 | 37204 ft | 438 kts | 219° |
| 2026-04-22 07:55 | 49.00071 | 2.61753 | 37198 ft | 436 kts | 219° |
| 2026-04-22 07:56 | 48.95034 | 2.56749 | 37203 ft | 435 kts | 219° |
| 2026-04-22 07:56 | 48.89971 | 2.51728 | 37216 ft | 434 kts | 219° |
| 2026-04-22 07:57 | 48.84911 | 2.46720 | 37208 ft | 434 kts | 219° |
| 2026-04-22 07:57 | 48.79844 | 2.41715 | 37185 ft | 435 kts | 219° |
| 2026-04-22 07:58 | 48.74774 | 2.36718 | 37184 ft | 435 kts | 219° |
| 2026-04-22 07:58 | 48.69690 | 2.31721 | 37187 ft | 436 kts | 218° |
| 2026-04-22 07:59 | 48.64597 | 2.26726 | 37185 ft | 437 kts | 218° |
| 2026-04-22 07:59 | 48.59491 | 2.21734 | 37180 ft | 438 kts | 217° |
| 2026-04-22 08:00 | 48.53841 | 2.18025 | 37167 ft | 452 kts | 198° |
| 2026-04-22 08:00 | 48.47669 | 2.16096 | 37162 ft | 454 kts | 196° |
| 2026-04-22 08:01 | 48.41518 | 2.14236 | 37151 ft | 454 kts | 197° |
| 2026-04-22 08:01 | 48.35349 | 2.12266 | 37156 ft | 453 kts | 197° |
| 2026-04-22 08:02 | 48.29151 | 2.10480 | 37139 ft | 457 kts | 189° |
| 2026-04-22 08:02 | 48.22749 | 2.11003 | 37163 ft | 465 kts | 174° |
| 2026-04-22 08:03 | 48.16364 | 2.12550 | 37147 ft | 464 kts | 175° |
| 2026-04-22 08:03 | 48.09966 | 2.13567 | 37158 ft | 460 kts | 182° |
| 2026-04-22 08:04 | 48.03574 | 2.13895 | 37147 ft | 459 kts | 183° |
| 2026-04-22 08:04 | 47.97189 | 2.14175 | 37159 ft | 459 kts | 182° |
| 2026-04-22 08:05 | 47.90806 | 2.14511 | 37157 ft | 459 kts | 182° |
| 2026-04-22 08:05 | 47.84421 | 2.14878 | 37154 ft | 459 kts | 182° |
| 2026-04-22 08:06 | 47.78041 | 2.15251 | 37156 ft | 459 kts | 182° |
| 2026-04-22 08:06 | 47.71666 | 2.15621 | 37142 ft | 459 kts | 182° |
| 2026-04-22 08:07 | 47.65284 | 2.15989 | 37129 ft | 458 kts | 182° |
| 2026-04-22 08:07 | 47.58908 | 2.16356 | 37115 ft | 458 kts | 182° |
| 2026-04-22 08:08 | 47.52539 | 2.16721 | 37101 ft | 458 kts | 182° |
| 2026-04-22 08:08 | 47.46165 | 2.17086 | 37091 ft | 458 kts | 182° |
| 2026-04-22 08:09 | 47.39797 | 2.17449 | 37091 ft | 458 kts | 182° |
| 2026-04-22 08:09 | 47.33431 | 2.17812 | 37086 ft | 457 kts | 182° |
| 2026-04-22 08:10 | 47.27073 | 2.18173 | 37080 ft | 457 kts | 182° |
| 2026-04-22 08:10 | 47.20716 | 2.18533 | 37079 ft | 457 kts | 182° |
| 2026-04-22 08:11 | 47.14366 | 2.18892 | 37070 ft | 457 kts | 182° |
| 2026-04-22 08:11 | 47.08074 | 2.18586 | 37064 ft | 447 kts | 195° |
| 2026-04-22 08:12 | 47.02197 | 2.16021 | 37069 ft | 439 kts | 205° |
| 2026-04-22 08:12 | 46.96474 | 2.13071 | 37063 ft | 439 kts | 205° |
| 2026-04-22 08:13 | 46.90668 | 2.10127 | 37063 ft | 439 kts | 204° |
| 2026-04-22 08:13 | 46.84930 | 2.07267 | 37059 ft | 439 kts | 204° |
| 2026-04-22 08:14 | 46.79153 | 2.04409 | 37065 ft | 438 kts | 204° |
| 2026-04-22 08:14 | 46.73372 | 2.01556 | 37057 ft | 438 kts | 204° |
| 2026-04-22 08:15 | 46.67601 | 1.98714 | 37049 ft | 436 kts | 204° |
| 2026-04-22 08:15 | 46.61891 | 1.95909 | 37042 ft | 431 kts | 204° |
| 2026-04-22 08:16 | 46.56203 | 1.93117 | 36626 ft | 428 kts | 204° |
| 2026-04-22 08:16 | 46.53400 | 1.91746 | 36257 ft | 423 kts | 204° |
| 2026-04-22 08:16 | 46.50629 | 1.90393 | 35929 ft | 418 kts | 204° |
| 2026-04-22 08:17 | 46.47881 | 1.89050 | 35524 ft | 415 kts | 204° |
| 2026-04-22 08:17 | 46.45158 | 1.87720 | 35158 ft | 411 kts | 204° |
| 2026-04-22 08:17 | 46.42453 | 1.86400 | 34779 ft | 408 kts | 204° |
| 2026-04-22 08:17 | 46.39776 | 1.85094 | 34410 ft | 405 kts | 204° |
| 2026-04-22 08:18 | 46.37119 | 1.83799 | 34047 ft | 401 kts | 204° |
| 2026-04-22 08:18 | 46.34481 | 1.82516 | 33623 ft | 398 kts | 204° |
| 2026-04-22 08:18 | 46.31868 | 1.81246 | 33264 ft | 394 kts | 204° |
| 2026-04-22 08:18 | 46.29278 | 1.79990 | 32887 ft | 390 kts | 204° |
| 2026-04-22 08:19 | 46.26775 | 1.78581 | 32522 ft | 382 kts | 211° |
| 2026-04-22 08:19 | 46.24508 | 1.76676 | 32214 ft | 372 kts | 220° |
| 2026-04-22 08:19 | 46.22526 | 1.74355 | 31951 ft | 363 kts | 225° |
| 2026-04-22 08:19 | 46.20633 | 1.71973 | 31694 ft | 361 kts | 225° |
| 2026-04-22 08:20 | 46.18734 | 1.69568 | 31443 ft | 366 kts | 225° |
| 2026-04-22 08:20 | 46.16800 | 1.67127 | 31192 ft | 369 kts | 225° |
| 2026-04-22 08:20 | 46.15523 | 1.65525 | 30999 ft | 366 kts | 224° |
| 2026-04-22 08:20 | 46.13602 | 1.63129 | 30645 ft | 364 kts | 224° |
| 2026-04-22 08:21 | 46.11692 | 1.60753 | 30292 ft | 362 kts | 224° |
| 2026-04-22 08:21 | 46.09788 | 1.58391 | 29921 ft | 360 kts | 224° |
| 2026-04-22 08:21 | 46.07891 | 1.56041 | 29518 ft | 358 kts | 224° |
| 2026-04-22 08:21 | 46.06010 | 1.53713 | 29132 ft | 355 kts | 224° |
| 2026-04-22 08:22 | 46.04146 | 1.51408 | 28779 ft | 352 kts | 224° |
| 2026-04-22 08:22 | 46.02298 | 1.49123 | 28404 ft | 349 kts | 224° |
| 2026-04-22 08:22 | 46.00460 | 1.46853 | 28041 ft | 347 kts | 224° |
| 2026-04-22 08:22 | 45.98635 | 1.44603 | 27682 ft | 344 kts | 223° |
| 2026-04-22 08:23 | 45.96821 | 1.42369 | 27322 ft | 342 kts | 224° |
| 2026-04-22 08:23 | 45.95170 | 1.39953 | 26964 ft | 337 kts | 233° |
| 2026-04-22 08:23 | 45.93841 | 1.37174 | 26371 ft | 340 kts | 244° |
| 2026-04-22 08:23 | 45.92770 | 1.34172 | 26022 ft | 337 kts | 245° |
| 2026-04-22 08:24 | 45.91721 | 1.31156 | 25648 ft | 337 kts | 245° |
| 2026-04-22 08:24 | 45.90677 | 1.28153 | 25291 ft | 336 kts | 245° |
| 2026-04-22 08:24 | 45.89629 | 1.25162 | 24945 ft | 335 kts | 245° |
| 2026-04-22 08:24 | 45.88579 | 1.22185 | 24594 ft | 334 kts | 245° |
| 2026-04-22 08:25 | 45.87528 | 1.19221 | 24257 ft | 333 kts | 245° |
| 2026-04-22 08:25 | 45.86478 | 1.16266 | 23914 ft | 332 kts | 245° |
| 2026-04-22 08:25 | 45.85429 | 1.13320 | 23566 ft | 332 kts | 245° |
| 2026-04-22 08:25 | 45.84379 | 1.10377 | 23167 ft | 331 kts | 244° |
| 2026-04-22 08:26 | 45.83328 | 1.07435 | 22787 ft | 330 kts | 244° |
| 2026-04-22 08:26 | 45.81986 | 1.04780 | 22410 ft | 332 kts | 223° |
| 2026-04-22 08:26 | 45.80064 | 1.02985 | 22070 ft | 333 kts | 205° |
| 2026-04-22 08:26 | 45.77806 | 1.02197 | 21698 ft | 336 kts | 188° |
| 2026-04-22 08:27 | 45.75475 | 1.01961 | 21351 ft | 336 kts | 186° |
| 2026-04-22 08:27 | 45.73144 | 1.01810 | 21002 ft | 335 kts | 185° |
| 2026-04-22 08:27 | 45.70825 | 1.01670 | 20662 ft | 333 kts | 185° |
| 2026-04-22 08:27 | 45.68512 | 1.01518 | 20321 ft | 332 kts | 185° |
| 2026-04-22 08:28 | 45.66212 | 1.01355 | 19985 ft | 331 kts | 186° |
| 2026-04-22 08:28 | 45.63919 | 1.01180 | 19652 ft | 329 kts | 186° |
| 2026-04-22 08:28 | 45.61634 | 1.01002 | 19325 ft | 328 kts | 186° |
| 2026-04-22 08:28 | 45.59361 | 1.00821 | 18992 ft | 327 kts | 186° |
| 2026-04-22 08:29 | 45.57093 | 1.00639 | 18663 ft | 326 kts | 186° |
| 2026-04-22 08:29 | 45.54831 | 1.00458 | 18329 ft | 325 kts | 186° |
| 2026-04-22 08:29 | 45.52602 | 1.00280 | 17977 ft | 325 kts | 186° |
| 2026-04-22 08:29 | 45.50320 | 1.00097 | 17618 ft | 323 kts | 186° |
| 2026-04-22 08:30 | 45.48088 | 0.99913 | 17304 ft | 320 kts | 186° |
| 2026-04-22 08:30 | 45.45897 | 0.99730 | 16975 ft | 319 kts | 186° |
| 2026-04-22 08:30 | 45.43689 | 0.99545 | 16649 ft | 317 kts | 186° |
| 2026-04-22 08:30 | 45.41491 | 0.99362 | 16327 ft | 316 kts | 186° |
| 2026-04-22 08:31 | 45.39303 | 0.99181 | 15997 ft | 315 kts | 186° |
| 2026-04-22 08:31 | 45.37122 | 0.98999 | 15674 ft | 313 kts | 186° |
| 2026-04-22 08:31 | 45.32791 | 0.98641 | 15043 ft | 311 kts | 186° |
| 2026-04-22 08:32 | 45.30637 | 0.98463 | 14708 ft | 310 kts | 186° |
| 2026-04-22 08:32 | 45.28489 | 0.98285 | 14397 ft | 309 kts | 186° |
| 2026-04-22 08:32 | 45.26348 | 0.98107 | 14079 ft | 308 kts | 186° |
| 2026-04-22 08:32 | 45.24210 | 0.97933 | 13765 ft | 307 kts | 186° |
| 2026-04-22 08:33 | 45.22076 | 0.97754 | 13422 ft | 307 kts | 186° |
| 2026-04-22 08:33 | 45.19947 | 0.97576 | 13068 ft | 306 kts | 186° |
| 2026-04-22 08:33 | 45.17829 | 0.97403 | 12738 ft | 304 kts | 186° |
| 2026-04-22 08:33 | 45.15719 | 0.97231 | 12427 ft | 303 kts | 186° |
| 2026-04-22 08:34 | 45.13615 | 0.97059 | 12112 ft | 302 kts | 187° |
| 2026-04-22 08:34 | 45.11517 | 0.96887 | 11794 ft | 302 kts | 187° |
| 2026-04-22 08:34 | 45.09423 | 0.96736 | 11473 ft | 301 kts | 187° |
| 2026-04-22 08:34 | 45.07333 | 0.96596 | 11157 ft | 300 kts | 186° |
| 2026-04-22 08:35 | 45.05251 | 0.96458 | 10857 ft | 299 kts | 187° |
| 2026-04-22 08:35 | 45.03183 | 0.96261 | 10544 ft | 295 kts | 195° |
| 2026-04-22 08:35 | 45.01343 | 0.95167 | 10269 ft | 284 kts | 221° |
| 2026-04-22 08:35 | 45.00050 | 0.93159 | 10052 ft | 272 kts | 242° |
| 2026-04-22 08:36 | 44.99350 | 0.90757 | 9920 ft | 262 kts | 258° |
| 2026-04-22 08:36 | 44.99012 | 0.88229 | 9601 ft | 261 kts | 262° |
| 2026-04-22 08:36 | 44.98735 | 0.85700 | 9313 ft | 260 kts | 262° |
| 2026-04-22 08:36 | 44.98466 | 0.83178 | 9018 ft | 259 kts | 262° |
| 2026-04-22 08:37 | 44.98194 | 0.80664 | 8723 ft | 259 kts | 262° |
| 2026-04-22 08:37 | 44.97917 | 0.78158 | 8438 ft | 258 kts | 262° |
| 2026-04-22 08:37 | 44.97638 | 0.75653 | 8166 ft | 258 kts | 262° |
| 2026-04-22 08:37 | 44.97352 | 0.73149 | 7875 ft | 259 kts | 261° |
| 2026-04-22 08:38 | 44.97066 | 0.70644 | 7587 ft | 258 kts | 261° |
| 2026-04-22 08:38 | 44.96780 | 0.68140 | 7291 ft | 258 kts | 261° |
| 2026-04-22 08:38 | 44.96491 | 0.65637 | 7007 ft | 258 kts | 261° |
| 2026-04-22 08:38 | 44.96199 | 0.63132 | 6718 ft | 259 kts | 261° |
| 2026-04-22 08:39 | 44.95908 | 0.60623 | 6431 ft | 259 kts | 261° |
| 2026-04-22 08:39 | 44.95614 | 0.58107 | 6146 ft | 260 kts | 261° |
| 2026-04-22 08:39 | 44.95318 | 0.55584 | 5840 ft | 262 kts | 261° |
| 2026-04-22 08:39 | 44.95016 | 0.53025 | 5467 ft | 266 kts | 261° |
| 2026-04-22 08:40 | 44.94713 | 0.50449 | 5189 ft | 265 kts | 261° |
| 2026-04-22 08:40 | 44.94416 | 0.47923 | 5125 ft | 257 kts | 261° |
| 2026-04-22 08:40 | 44.94130 | 0.45493 | 4991 ft | 251 kts | 260° |
| 2026-04-22 08:40 | 44.93847 | 0.43102 | 4904 ft | 244 kts | 260° |
| 2026-04-22 08:41 | 44.93572 | 0.40779 | 4812 ft | 237 kts | 260° |
| 2026-04-22 08:41 | 44.93306 | 0.38519 | 4690 ft | 231 kts | 261° |
| 2026-04-22 08:41 | 44.93045 | 0.36247 | 4420 ft | 231 kts | 259° |
| 2026-04-22 08:41 | 44.92774 | 0.34054 | 4192 ft | 230 kts | 259° |
| 2026-04-22 08:42 | 44.92493 | 0.31847 | 3953 ft | 228 kts | 253° |
| 2026-04-22 08:42 | 44.91717 | 0.29938 | 3701 ft | 226 kts | 219° |
| 2026-04-22 08:42 | 44.90351 | 0.28951 | 3474 ft | 220 kts | 191° |
| 2026-04-22 08:42 | 44.88839 | 0.28661 | 3256 ft | 219 kts | 183° |
| 2026-04-22 08:43 | 44.87308 | 0.28512 | 3008 ft | 223 kts | 183° |
| 2026-04-22 08:43 | 44.85770 | 0.28640 | 2744 ft | 220 kts | 162° |
| 2026-04-22 08:43 | 44.84500 | 0.29703 | 2602 ft | 209 kts | 136° |
| 2026-04-22 08:43 | 44.83715 | 0.31327 | 2533 ft | 197 kts | 114° |
| 2026-04-22 08:44 | 44.83406 | 0.33140 | 2482 ft | 185 kts | 99° |
| 2026-04-22 08:44 | 44.83294 | 0.34852 | 2500 ft | 170 kts | 98° |
| 2026-04-22 08:44 | 44.83240 | 0.36486 | 2486 ft | 165 kts | 97° |
| 2026-04-22 08:44 | 44.83165 | 0.38191 | 2159 ft | 175 kts | 97° |
| 2026-04-22 08:45 | 44.83087 | 0.39812 | 1993 ft | 161 kts | 99° |
| 2026-04-22 08:45 | 44.83009 | 0.41396 | 1682 ft | 156 kts | 99° |
| 2026-04-22 08:45 | 44.82933 | 0.42861 | 1460 ft | 145 kts | 98° |
| 2026-04-22 08:45 | 44.82866 | 0.44203 | 1287 ft | 128 kts | 97° |
| 2026-04-22 08:46 | 44.82804 | 0.45510 | 1053 ft | 141 kts | 98° |
| 2026-04-22 08:46 | 44.82715 | 0.46952 | 830 ft | 153 kts | 94° |
| 2026-04-22 08:46 | 44.82629 | 0.48502 | 512 ft | 164 kts | 95° |
| 2026-04-22 08:46 | 44.82548 | 0.50073 | 275 ft | 162 kts | 93° |
| 2026-04-22 08:47 | 44.82474 | 0.51596 | 179 ft | 145 kts | 94° |
| 2026-04-22 08:47 | 44.82422 | 0.52553 | 170 ft | 61 kts | 94° |
| 2026-04-22 08:47 | 44.82397 | 0.52938 | 169 ft | 22 kts | 94° |
| 2026-04-22 08:47 | 44.82429 | 0.53140 | 170 ft | 21 kts | 62° |
| 2026-04-22 08:48 | 44.82389 | 0.53182 | 169 ft | 13 kts | 258° |
| 2026-04-22 08:48 | 44.82396 | 0.52955 | 169 ft | 25 kts | 273° |
| 2026-04-22 08:48 | 44.82407 | 0.52717 | 170 ft | 23 kts | 274° |
| 2026-04-22 08:48 | 44.82418 | 0.52493 | 170 ft | 23 kts | 275° |
| 2026-04-22 08:49 | 44.82435 | 0.52235 | 175 ft | 27 kts | 275° |
| 2026-04-22 08:49 | 44.82357 | 0.52045 | 177 ft | 25 kts | 188° |
| 2026-04-22 08:49 | 44.82292 | 0.51844 | 178 ft | 20 kts | 274° |
| 2026-04-22 08:49 | 44.82254 | 0.51680 | 178 ft | 10 kts | 250° |
| 2026-04-22 08:50 | 44.82271 | 0.51619 | 178 ft | 0 kts | 309° |